Time;durP1;ratioP1;P1;durP2;ratioP2;P2;SDS_P1;SDS_P2;PMS_P1;PMS_P2;Temp;Humidity;BMP_temperature;BMP_pressure;BME280_temperature;BME280_humidity;BME280_pressure;Samples;Min_cycle;Max_cycle;Signal;HPM_P1;HPM_P2
2022/07/11 06:22:50;;;;;;;;;4.00;3.00;;;;;24.24;73.32;101612.16;6070837;23;46440;31
2022/07/11 06:25:28;;;;;;;;;5.00;4.00;;;;;24.27;73.39;101621.16;6147186;22;46213;-86
2022/07/11 06:27:53;;;;;;;;;6.00;2.00;;;;;24.32;73.09;101626.53;6204547;23;44814;-89
2022/07/11 06:30:19;;;;;;;;;4.00;2.33;;;;;24.40;73.16;101622.06;6143897;22;46005;-86
2022/07/11 07:14:16;;;;;;;;;3.00;2.00;;;;;25.46;71.97;101692.75;6101399;22;45917;-94
2022/07/11 07:21:51;;;;;;;;;1.00;1.00;;;;;25.74;71.21;101724.06;6195776;22;45357;-96
2022/07/11 07:24:18;;;;;;;;;1.33;1.33;;;;;25.69;71.33;101718.69;6171091;23;45284;-94
2022/07/11 07:26:43;;;;;;;;;3.33;3.00;;;;;25.71;71.23;101714.19;6170901;23;45221;-93
2022/07/11 07:29:12;;;;;;;;;3.33;3.33;;;;;25.82;71.17;101722.22;6195207;23;45427;-94
2022/07/11 07:31:42;;;;;;;;;1.00;1.00;;;;;25.89;70.90;101729.41;6164238;23;44682;-95
2022/07/11 07:34:09;;;;;;;;;3.67;2.00;;;;;25.98;70.75;101751.75;6168162;23;45224;-95
2022/07/11 07:36:36;;;;;;;;;1.00;1.00;;;;;26.11;70.60;101756.22;6186083;23;45233;-92
2022/07/11 07:39:02;;;;;;;;;2.00;2.00;;;;;26.14;70.11;101768.75;6162529;23;47411;-94
2022/07/11 07:41:30;;;;;;;;;2.00;2.00;;;;;26.22;70.50;101775.00;6164940;23;45667;-91
2022/07/11 07:43:57;;;;;;;;;2.33;2.33;;;;;26.30;70.35;101782.16;6160227;23;45422;-92
2022/07/11 07:46:22;;;;;;;;;3.00;2.67;;;;;26.28;69.99;101773.19;6187612;23;45305;-93
2022/07/11 07:48:48;;;;;;;;;2.00;2.00;;;;;26.34;69.84;101779.44;6163326;23;46948;-92
2022/07/11 07:51:13;;;;;;;;;2.00;2.00;;;;;26.49;69.88;101803.63;6187924;23;45206;-93
2022/07/11 07:53:39;;;;;;;;;2.00;2.00;;;;;26.54;69.85;101797.28;6179705;23;45308;-90
2022/07/11 07:59:19;;;;;;;;;2.00;2.00;;;;;26.78;69.29;101826.78;6111577;22;46610;-89
2022/07/11 08:01:46;;;;;;;;;3.00;3.00;;;;;26.78;69.31;101816.91;6185517;22;45296;-93
2022/07/11 08:04:11;;;;;;;;;2.00;2.00;;;;;26.84;69.12;101815.09;6212105;22;44726;-94
2022/07/11 08:06:38;;;;;;;;;1.00;1.00;;;;;26.96;69.09;101828.47;6235503;22;45309;-93
2022/07/11 08:09:06;;;;;;;;;1.00;1.00;;;;;27.00;68.95;101830.25;6265171;22;45337;-95
2022/07/11 08:11:33;;;;;;;;;2.00;2.00;;;;;27.02;68.93;101819.47;6258737;22;45371;-93
2022/07/11 08:14:00;;;;;;;;;2.00;2.00;;;;;27.22;68.40;101857.06;6239307;22;45379;-93
2022/07/11 08:16:28;;;;;;;;;2.33;2.33;;;;;27.10;68.19;101843.66;6242406;22;44734;-91
2022/07/11 08:21:31;;;;;;;;;2.00;2.00;;;;;27.32;68.15;101857.91;6164932;22;45123;-94
2022/07/11 08:23:57;;;;;;;;;1.67;1.67;;;;;27.39;67.82;101860.56;6143847;22;45383;-92
2022/07/11 08:26:23;;;;;;;;;2.00;2.00;;;;;27.42;68.00;101856.03;6104956;23;45589;-92
2022/07/11 08:38:59;;;;;;;;;1.00;1.00;;;;;27.74;66.94;101862.06;6145437;22;46781;-91
2022/07/11 08:41:25;;;;;;;;;1.33;1.00;;;;;27.82;66.62;101856.63;6206504;22;44664;-92
2022/07/11 08:43:51;;;;;;;;;1.00;1.00;;;;;27.91;66.83;101866.41;6197170;22;45227;-88
2022/07/11 08:46:17;;;;;;;;;1.00;1.00;;;;;27.97;66.36;101866.34;6224035;22;45288;-91
2022/07/11 08:48:44;;;;;;;;;1.00;1.00;;;;;28.02;66.38;101874.41;6199177;22;47135;-89
2022/07/11 08:51:10;;;;;;;;;1.00;1.00;;;;;27.97;66.58;101852.88;6209786;22;44654;-90
2022/07/11 08:53:44;;;;;;;;;2.00;2.00;;;;;28.14;65.97;101876.09;6203957;22;45134;-89
2022/07/11 08:56:15;;;;;;;;;2.00;2.00;;;;;28.18;65.94;101877.84;6189229;22;45293;-91
2022/07/11 08:58:44;;;;;;;;;1.00;1.00;;;;;28.21;65.79;101875.09;6187047;22;45347;-92
2022/07/11 09:01:11;;;;;;;;;1.00;1.00;;;;;28.16;65.48;101863.47;6230777;22;45291;-91
2022/07/11 09:03:36;;;;;;;;;1.33;1.33;;;;;28.15;65.84;101855.38;6203769;22;44781;-91
2022/07/11 09:06:03;;;;;;;;;0.00;0.00;;;;;28.28;65.63;101886.72;6177561;22;45338;-90
2022/07/11 09:08:30;;;;;;;;;1.00;1.00;;;;;28.26;65.63;101868.75;6207837;22;46430;-91
2022/07/11 09:10:55;;;;;;;;;3.00;2.00;;;;;28.19;65.56;101858.00;6206341;22;45312;-92
2022/07/11 09:13:28;;;;;;;;;0.00;0.00;;;;;28.16;65.64;101858.06;6232364;22;45122;-91
2022/07/11 09:16:01;;;;;;;;;0.67;0.67;;;;;28.18;65.67;101858.94;6194893;22;45452;-91
2022/07/11 09:18:40;;;;;;;;;2.00;2.00;;;;;28.30;65.81;101857.00;6191477;22;47987;-90
2022/07/11 09:27:21;;;;;;;;;2.67;1.67;;;;;28.67;65.12;101877.28;6213476;22;45231;-90
2022/07/11 09:29:47;;;;;;;;;0.67;0.67;;;;;28.66;65.19;101854.78;6179810;22;45360;-94
2022/07/11 09:37:45;;;;;;;;;2.00;1.00;;;;;28.92;64.86;101858.03;6185983;22;46030;-90
2022/07/11 09:48:19;;;;;;;;;0.00;0.00;;;;;29.29;64.35;101877.34;6216884;22;45263;-94
2022/07/11 09:51:04;;;;;;;;;1.00;1.00;;;;;29.35;64.16;101877.25;6163267;22;46034;-92
2022/07/11 09:59:13;;;;;;;;;2.00;2.00;;;;;29.85;64.01;101879.13;6176096;22;46370;-93
2022/07/11 10:01:45;;;;;;;;;1.00;1.00;;;;;30.52;63.72;101882.38;6198375;22;48427;-91
2022/07/11 10:07:02;;;;;;;;;0.00;0.00;;;;;32.42;62.01;101883.16;6214672;22;45579;-93
2022/07/11 10:20:06;;;;;;;;;1.67;1.67;;;;;37.76;57.61;101889.13;6218477;22;45232;-92
2022/07/11 10:25:32;;;;;;;;;1.00;1.00;;;;;40.55;55.27;101916.13;6178315;22;45840;-87
2022/07/11 10:30:47;;;;;;;;;0.33;0.33;;;;;44.60;51.02;101927.41;6206587;22;46156;-96
2022/07/11 10:33:14;;;;;;;;;1.00;1.00;;;;;46.03;48.66;101925.56;6154245;23;47693;-96
2022/07/11 10:35:47;;;;;;;;;2.00;2.00;;;;;46.65;47.40;101939.41;6152726;23;45351;-88
2022/07/11 10:38:13;;;;;;;;;1.67;1.67;;;;;47.17;46.21;101939.34;6147022;23;45407;-90
2022/07/11 10:40:56;;;;;;;;;4.00;0.00;;;;;47.98;44.81;101941.91;6148639;23;45485;-94
2022/07/11 10:43:22;;;;;;;;;0.33;0.33;;;;;49.31;43.24;101950.97;6156810;23;45352;-89
2022/07/11 10:53:41;;;;;;;;;0.00;0.00;;;;;53.76;38.10;101933.81;6135025;22;46823;-94
2022/07/11 11:02:33;;;;;;;;;2.67;1.67;;;;;56.46;34.44;101955.34;6194964;22;45879;-92
2022/07/11 11:13:14;;;;;;;;;0.00;0.00;;;;;58.66;31.06;101935.91;6173697;22;46233;-94
2022/07/11 11:18:27;;;;;;;;;0.33;0.33;;;;;59.64;30.30;101933.75;6211231;22;46092;-94
2022/07/11 11:49:50;;;;;;;;;0.00;0.00;;;;;62.19;25.82;101912.03;6184895;22;45729;-96
2022/07/11 12:00:36;;;;;;;;;2.00;1.00;;;;;63.52;24.93;101904.19;6174916;22;46358;-95
2022/07/11 12:29:19;;;;;;;;;0.00;0.00;;;;;65.25;22.27;101864.94;6194974;22;46240;-96
2022/07/11 12:32:01;;;;;;;;;2.67;1.00;;;;;65.56;23.14;101887.91;6184530;22;45406;-95
2022/07/11 12:34:32;;;;;;;;;1.00;0.00;;;;;65.85;22.76;101884.59;6186273;22;45393;-94
2022/07/11 12:37:28;;;;;;;;;0.00;0.00;;;;;66.10;22.01;101890.63;6191202;22;45560;-94
2022/07/11 12:40:28;;;;;;;;;0.00;0.00;;;;;66.15;22.40;101864.03;6206144;22;45391;-95
2022/07/11 12:44:57;;;;;;;;;8.25;8.25;;;;;66.35;22.57;101856.66;6200399;22;45803;-96
2022/07/11 12:46:12;;;;;;;;;0.00;0.00;;;;;66.74;22.14;101869.47;6223210;22;45054;-94
2022/07/11 12:48:43;;;;;;;;;0.00;0.00;;;;;67.01;22.26;101871.13;6153756;22;45990;-95
2022/07/11 12:51:09;;;;;;;;;0.00;0.00;;;;;67.29;21.82;101860.16;6155090;22;48419;-94
2022/07/11 12:56:22;;;;;;;;;0.00;0.00;;;;;67.83;21.22;101853.84;6228766;22;45278;-95
2022/07/11 12:58:47;;;;;;;;;0.00;0.00;;;;;68.40;21.04;101871.72;6177366;22;44804;-95
2022/07/11 13:01:16;;;;;;;;;1.00;1.00;;;;;68.81;21.31;101856.06;6201965;22;45385;-95
2022/07/11 13:08:58;;;;;;;;;0.00;0.00;;;;;70.62;20.46;101854.72;6135710;22;45920;-94
2022/07/11 13:19:09;;;;;;;;;0.00;0.00;;;;;72.67;19.29;101867.91;6148280;22;46616;-91
2022/07/11 14:05:34;;;;;;;;;0.00;0.00;;;;;70.05;19.16;101814.38;6174363;22;45819;-94
2022/07/11 14:07:59;;;;;;;;;0.75;0.75;;;;;69.89;18.79;101802.28;6139253;22;45457;-95
2022/07/11 14:10:27;;;;;;;;;1.00;1.00;;;;;69.67;19.21;101797.19;6173548;22;44828;-94
2022/07/11 14:12:53;;;;;;;;;0.75;0.75;;;;;69.73;19.31;101808.31;6166200;23;45330;-95
2022/07/11 14:15:18;;;;;;;;;0.50;0.50;;;;;69.51;18.80;101783.09;6118320;23;45291;-93
2022/07/11 14:17:43;;;;;;;;;1.25;1.25;;;;;69.52;19.11;101794.25;6167850;23;46002;-95
2022/07/11 14:20:09;;;;;;;;;2.00;1.00;;;;;69.50;19.45;101790.84;6166980;23;45435;-96
2022/07/11 14:22:35;;;;;;;;;2.50;1.25;;;;;69.48;19.00;101775.09;6167422;23;45200;-95
2022/07/11 14:25:02;;;;;;;;;1.00;1.00;;;;;69.49;19.20;101789.13;6147980;23;45237;-92
2022/07/11 14:27:27;;;;;;;;;1.00;1.00;;;;;69.21;18.94;101783.25;6160798;23;45985;-93
2022/07/11 14:29:55;;;;;;;;;2.25;2.25;;;;;68.93;19.38;101763.84;6137369;23;45578;-93
2022/07/11 14:32:21;;;;;;;;;2.00;1.00;;;;;68.84;19.16;101772.25;6167077;23;45472;-91
2022/07/11 14:34:46;;;;;;;;;1.25;1.00;;;;;68.79;19.54;101771.47;6159535;23;45367;-91
2022/07/11 14:37:12;;;;;;;;;3.25;1.50;;;;;68.80;19.53;101768.28;6135185;23;47434;-92
2022/07/11 14:39:37;;;;;;;;;1.00;1.00;;;;;68.85;19.00;101773.94;6135482;23;45618;-94
2022/07/11 14:42:03;;;;;;;;;1.00;0.75;;;;;68.77;19.31;101753.72;6134815;23;45419;-95
2022/07/11 14:44:28;;;;;;;;;2.00;2.00;;;;;68.70;19.50;101775.03;6163442;23;45224;-94
2022/07/11 14:46:54;;;;;;;;;1.00;1.00;;;;;68.42;19.69;101775.63;6165441;23;45408;-92
2022/07/11 14:49:21;;;;;;;;;1.00;1.00;;;;;67.78;19.31;101779.38;6166181;23;45251;-92
2022/07/11 14:51:47;;;;;;;;;1.50;1.50;;;;;65.96;19.64;101773.22;6139205;23;44651;-96
2022/07/11 14:54:12;;;;;;;;;1.00;1.00;;;;;63.11;21.13;101753.69;6162637;23;45514;-94
2022/07/11 14:56:38;;;;;;;;;0.50;0.50;;;;;60.21;21.93;101748.47;6161476;23;45352;-95
2022/07/11 14:59:04;;;;;;;;;1.00;0.00;;;;;57.64;22.68;101758.56;6155800;23;45330;-93
2022/07/11 15:01:30;;;;;;;;;0.00;0.00;;;;;55.30;23.83;101757.81;6165244;23;45375;-93
2022/07/11 15:03:56;;;;;;;;;1.50;0.25;;;;;53.17;24.30;101761.41;6162844;23;45264;-93
2022/07/11 15:12:20;;;;;;;;;0.25;0.25;;;;;51.34;25.13;101766.34;6166052;23;47150;-92
2022/07/11 15:14:36;;;;;;;;;1.00;1.00;;;;;46.66;28.44;101748.75;6067816;23;45277;-94
2022/07/11 15:17:01;;;;;;;;;0.67;0.67;;;;;45.61;29.46;101759.16;6074111;23;45380;-92
2022/07/11 15:19:26;;;;;;;;;0.33;0.33;;;;;44.72;30.83;101758.53;6073001;23;45313;-90
2022/07/11 15:21:52;;;;;;;;;1.00;1.00;;;;;43.84;31.43;101752.81;6073146;23;45639;-90
2022/07/11 15:24:17;;;;;;;;;0.00;0.00;;;;;43.05;31.71;101758.13;6047619;23;45759;-91
2022/07/11 15:26:42;;;;;;;;;1.00;1.00;;;;;42.35;32.45;101741.34;6071062;23;46441;-90
2022/07/11 15:29:09;;;;;;;;;2.33;1.33;;;;;41.75;33.21;101742.94;6071809;23;45302;-92
2022/07/11 15:31:34;;;;;;;;;0.00;0.00;;;;;41.18;33.38;101732.25;6070742;23;44659;-92
2022/07/11 15:34:00;;;;;;;;;1.00;0.00;;;;;40.72;34.59;101732.56;6067548;23;45428;-90
2022/07/11 15:36:44;;;;;;;;;0.00;0.00;;;;;40.29;35.01;101723.50;6049202;23;47309;-95
2022/07/11 15:39:16;;;;;;;;;1.00;1.00;;;;;39.91;35.09;101740.63;6078889;23;44911;-95
2022/07/11 15:41:42;;;;;;;;;1.00;1.00;;;;;39.49;35.65;101724.94;6048063;23;45329;-95
2022/07/11 15:44:11;;;;;;;;;0.00;0.00;;;;;39.17;36.09;101726.84;6052098;23;45372;-94
2022/07/11 15:46:42;;;;;;;;;0.00;0.00;;;;;38.67;36.38;101699.63;6050886;23;47215;-95
2022/07/11 15:49:08;;;;;;;;;1.00;1.00;;;;;38.39;37.13;101698.53;6101407;23;45458;-94
2022/07/11 15:51:34;;;;;;;;;1.67;0.33;;;;;38.19;37.70;101698.72;6137472;23;44794;-95
2022/07/11 15:54:01;;;;;;;;;0.00;0.00;;;;;38.05;37.79;101717.78;6138636;23;45221;-95
2022/07/11 15:56:27;;;;;;;;;0.00;0.00;;;;;37.69;37.97;101698.75;6165065;23;46213;-93
2022/07/11 15:58:57;;;;;;;;;1.00;1.00;;;;;37.50;38.25;101707.97;6139316;23;45289;-96
2022/07/11 16:01:22;;;;;;;;;0.00;0.00;;;;;37.12;38.88;101692.63;6136166;23;45378;-95
2022/07/11 16:03:47;;;;;;;;;0.33;0.33;;;;;36.95;38.94;101702.63;6138923;23;45493;-95
2022/07/11 16:06:13;;;;;;;;;1.33;1.33;;;;;36.74;39.61;101708.22;6163440;23;47286;-94
2022/07/11 16:08:41;;;;;;;;;0.00;0.00;;;;;36.53;39.78;101700.16;6171740;23;44769;-94
2022/07/11 16:11:06;;;;;;;;;1.00;1.00;;;;;36.43;40.16;101707.94;6117492;23;44997;-95
2022/07/11 16:13:33;;;;;;;;;0.33;0.33;;;;;36.29;40.36;101714.03;6137390;23;44918;-95
2022/07/11 16:15:58;;;;;;;;;0.00;0.00;;;;;36.07;40.31;101689.63;6137832;23;47476;-94
2022/07/11 16:18:24;;;;;;;;;0.00;0.00;;;;;35.88;41.16;101702.34;6135466;23;45194;-94
2022/07/11 16:21:03;;;;;;;;;0.33;0.00;;;;;35.70;41.15;101690.41;6165338;23;44763;-95
2022/07/11 16:23:30;;;;;;;;;1.00;1.00;;;;;35.55;41.40;101687.44;6136252;23;45776;-95
2022/07/11 16:25:55;;;;;;;;;0.00;0.00;;;;;35.51;41.52;101704.94;6166312;23;46056;-95
2022/07/11 16:28:23;;;;;;;;;0.00;0.00;;;;;35.22;41.89;101688.91;6166554;23;45248;-96
2022/07/11 16:30:52;;;;;;;;;0.00;0.00;;;;;35.21;41.71;101706.22;6140467;23;44786;-95
2022/07/11 16:33:17;;;;;;;;;0.00;0.00;;;;;34.97;41.92;101694.56;6140839;23;45359;-96
2022/07/11 16:35:43;;;;;;;;;1.33;1.33;;;;;34.97;42.15;101710.91;6139858;23;46995;-93
2022/07/11 16:38:17;;;;;;;;;1.00;1.00;;;;;34.87;42.52;101716.75;6139518;23;44807;-96
2022/07/11 16:43:28;;;;;;;;;0.33;0.33;;;;;34.67;43.11;101723.03;6165797;23;44825;-93
2022/07/11 16:45:57;;;;;;;;;0.00;0.00;;;;;34.61;42.99;101724.16;6165453;23;45689;-91
2022/07/11 16:48:24;;;;;;;;;0.00;0.00;;;;;34.49;42.89;101728.28;6136737;23;45473;-92
2022/07/11 16:50:50;;;;;;;;;1.00;0.00;;;;;34.36;43.45;101719.75;6165157;23;45626;-92
2022/07/11 16:53:16;;;;;;;;;0.00;0.00;;;;;34.31;43.71;101727.22;6137972;23;45554;-92
2022/07/11 16:55:46;;;;;;;;;0.00;0.00;;;;;34.21;43.04;101721.22;6164987;23;45367;-89
2022/07/11 16:58:12;;;;;;;;;0.00;0.00;;;;;34.10;43.43;101722.53;6162033;23;45431;-92
2022/07/11 17:00:39;;;;;;;;;1.00;0.00;;;;;34.02;44.04;101724.66;6162292;23;45301;-93
2022/07/11 17:03:06;;;;;;;;;0.67;0.00;;;;;33.95;43.87;101721.31;6161506;23;44810;-93
2022/07/11 17:05:33;;;;;;;;;0.00;0.00;;;;;33.91;43.76;101726.94;6166515;23;46484;-93
2022/07/11 17:10:42;;;;;;;;;1.00;0.00;;;;;33.73;44.33;101711.22;6160965;23;44788;-91
2022/07/11 17:13:08;;;;;;;;;0.00;0.00;;;;;33.69;44.18;101712.25;6134824;23;44786;-92
2022/07/11 17:15:34;;;;;;;;;0.00;0.00;;;;;33.63;44.70;101712.50;6163319;23;45326;-93
2022/07/11 17:18:00;;;;;;;;;0.00;0.00;;;;;33.54;45.19;101705.56;6139293;23;45873;-93
2022/07/11 17:20:25;;;;;;;;;0.00;0.00;;;;;33.53;44.63;101717.38;6153971;23;45255;-93
2022/07/11 17:22:50;;;;;;;;;0.00;0.00;;;;;33.47;44.94;101714.91;6150664;23;45357;-94
2022/07/11 17:25:16;;;;;;;;;0.00;0.00;;;;;33.38;44.86;101710.69;6150606;23;45527;-92
2022/07/11 17:27:45;;;;;;;;;0.00;0.00;;;;;33.31;44.71;101704.59;6150516;23;45359;-91
2022/07/11 17:30:11;;;;;;;;;0.33;0.33;;;;;33.28;45.05;101701.97;6152872;23;45387;-92
2022/07/11 17:32:36;;;;;;;;;0.00;0.00;;;;;33.24;45.15;101717.53;6126252;23;45280;-93
2022/07/11 17:35:03;;;;;;;;;0.00;0.00;;;;;33.17;44.97;101708.66;6153700;23;45330;-92
2022/07/11 17:37:28;;;;;;;;;0.00;0.00;;;;;33.10;45.24;101716.16;6150111;23;45787;-95
2022/07/11 17:39:54;;;;;;;;;1.00;1.00;;;;;33.04;45.21;101719.06;6150955;23;45403;-91
2022/07/11 17:42:19;;;;;;;;;0.00;0.00;;;;;32.99;45.44;101710.19;6125683;23;45469;-92
2022/07/11 17:44:44;;;;;;;;;0.00;0.00;;;;;32.90;45.89;101711.41;6123079;23;47937;-93
2022/07/11 17:47:12;;;;;;;;;0.00;0.00;;;;;32.85;45.81;101707.97;6128018;23;49434;-94
2022/07/11 17:49:37;;;;;;;;;0.00;0.00;;;;;32.78;46.30;101696.44;6136387;23;45374;-92
2022/07/11 17:52:05;;;;;;;;;0.00;0.00;;;;;32.72;45.78;101708.38;6136275;23;45487;-92
2022/07/11 17:54:31;;;;;;;;;0.00;0.00;;;;;32.66;46.35;101705.84;6138534;23;45603;-94
2022/07/11 17:56:56;;;;;;;;;0.00;0.00;;;;;32.59;46.04;101698.81;6134469;23;45387;-90
2022/07/11 17:59:22;;;;;;;;;0.00;0.00;;;;;32.56;46.16;101708.88;6163820;23;45343;-89
2022/07/11 18:01:48;;;;;;;;;0.00;0.00;;;;;32.51;46.31;101696.34;6161698;23;45352;-90
2022/07/11 18:04:14;;;;;;;;;1.00;0.00;;;;;32.47;46.12;101703.75;6157518;23;46316;-90
2022/07/11 18:06:39;;;;;;;;;0.00;0.00;;;;;32.43;46.31;101705.66;6130631;23;45199;-89
2022/07/11 18:09:05;;;;;;;;;0.00;0.00;;;;;32.40;46.47;101715.72;6131906;23;45295;-88
2022/07/11 18:11:31;;;;;;;;;0.00;0.00;;;;;32.37;46.21;101719.41;6165933;23;44657;-89
2022/07/11 18:13:57;;;;;;;;;0.33;0.00;;;;;32.31;46.68;101712.38;6162641;23;45351;-90
2022/07/11 18:16:22;;;;;;;;;0.00;0.00;;;;;32.25;46.64;101714.38;6133107;23;45329;-89
2022/07/11 18:18:47;;;;;;;;;0.00;0.00;;;;;32.16;46.64;101710.16;6159067;23;48018;-92
2022/07/11 18:21:13;;;;;;;;;0.00;0.00;;;;;32.17;46.68;101718.22;6140116;23;57921;-91
2022/07/11 18:23:40;;;;;;;;;0.33;0.33;;;;;32.10;46.70;101719.38;6131890;23;47762;-88
2022/07/11 18:26:06;;;;;;;;;0.00;0.00;;;;;32.07;46.80;101717.59;6158780;23;44767;-87
2022/07/11 18:28:33;;;;;;;;;0.00;0.00;;;;;32.01;47.02;101713.25;6129971;23;45310;-90
2022/07/11 18:30:58;;;;;;;;;0.00;0.00;;;;;32.00;47.20;101721.44;6133076;23;45582;-89
2022/07/11 18:33:24;;;;;;;;;0.00;0.00;;;;;31.97;47.41;101717.00;6129948;23;64199;-92
2022/07/11 18:35:50;;;;;;;;;2.00;2.00;;;;;31.92;47.36;101708.09;6160932;23;45204;-92
2022/07/11 18:38:15;;;;;;;;;0.00;0.00;;;;;31.95;47.18;101720.69;6138323;23;56146;-92
2022/07/11 18:43:24;;;;;;;;;0.00;0.00;;;;;31.82;47.65;101718.34;6160257;23;45195;-95
2022/07/11 18:45:51;;;;;;;;;0.00;0.00;;;;;31.82;47.69;101714.75;6144754;22;45226;-92
2022/07/11 18:48:21;;;;;;;;;1.33;0.00;;;;;31.70;47.40;101705.16;6148007;23;44708;-93
2022/07/11 18:50:49;;;;;;;;;1.67;0.67;;;;;31.62;47.63;101703.50;6145958;23;45295;-95
2022/07/11 18:53:15;;;;;;;;;0.00;0.00;;;;;31.56;47.71;101695.56;6166023;23;45462;-94
2022/07/11 18:55:40;;;;;;;;;0.67;0.67;;;;;31.55;47.73;101712.78;6138446;23;45145;-92
2022/07/11 18:58:05;;;;;;;;;0.00;0.00;;;;;31.49;47.53;101713.81;6134667;23;45344;-94
2022/07/11 19:00:31;;;;;;;;;0.00;0.00;;;;;31.43;47.76;101705.84;6160861;23;45244;-92
2022/07/11 19:02:57;;;;;;;;;1.00;1.00;;;;;31.38;47.46;101713.22;6163151;23;45344;-92
2022/07/11 19:05:25;;;;;;;;;0.00;0.00;;;;;31.34;47.73;101718.72;6136815;23;45002;-92
2022/07/11 19:07:57;;;;;;;;;2.00;1.00;;;;;31.28;47.91;101718.00;6136277;23;45336;-91
2022/07/11 19:10:22;;;;;;;;;2.33;1.00;;;;;31.26;47.87;101725.31;6163970;23;62445;-91
2022/07/11 19:12:48;;;;;;;;;0.00;0.00;;;;;31.23;47.75;101729.00;6140067;23;46019;-89
2022/07/11 19:15:14;;;;;;;;;0.00;0.00;;;;;31.07;47.53;101707.72;6140082;23;45350;-91
2022/07/11 19:17:39;;;;;;;;;1.00;1.00;;;;;31.13;47.61;101731.06;6131805;23;45338;-91
2022/07/11 19:20:05;;;;;;;;;0.00;0.00;;;;;31.02;47.91;101725.91;6130099;23;45212;-91
2022/07/11 19:22:31;;;;;;;;;0.67;0.67;;;;;30.98;47.78;101725.09;6153675;23;46609;-92
2022/07/11 19:24:57;;;;;;;;;3.00;2.00;;;;;30.92;47.94;101722.53;6131436;23;45888;-91
2022/07/11 19:27:22;;;;;;;;;1.33;0.33;;;;;30.89;48.27;101731.63;6126130;23;45307;-93
2022/07/11 19:29:47;;;;;;;;;0.00;0.00;;;;;30.86;47.89;101736.22;6162369;23;47349;-95
2022/07/11 19:32:13;;;;;;;;;0.00;0.00;;;;;30.83;48.07;101736.28;6160878;23;45025;-89
2022/07/11 19:34:39;;;;;;;;;1.33;1.33;;;;;30.77;48.10;101738.22;6107835;23;44927;-94
2022/07/11 19:37:04;;;;;;;;;1.00;1.00;;;;;30.68;48.28;101735.75;6133713;23;45457;-94
2022/07/11 19:39:29;;;;;;;;;2.00;2.00;;;;;30.64;48.64;101728.63;6136360;23;45224;-93
2022/07/11 19:41:56;;;;;;;;;2.00;2.00;;;;;30.60;48.41;101733.22;6164130;23;46108;-95
2022/07/11 19:44:22;;;;;;;;;4.00;3.00;;;;;30.53;48.13;101732.47;6165964;23;45340;-94
2022/07/11 19:46:47;;;;;;;;;0.00;0.00;;;;;30.52;48.50;101740.63;6140578;23;45988;-94
2022/07/11 19:49:13;;;;;;;;;0.33;0.33;;;;;30.45;48.44;101739.88;6130656;23;49447;-94
2022/07/11 19:51:39;;;;;;;;;3.67;2.67;;;;;30.40;48.90;101747.22;6135888;23;48229;-92
2022/07/11 19:57:22;;;;;;;;;2.00;0.00;;;;;30.37;48.74;101747.28;6159113;23;45293;-93
2022/07/11 19:59:33;;;;;;;;;1.00;1.00;;;;;30.26;49.19;101755.63;6158798;23;45428;-96
2022/07/11 20:01:59;;;;;;;;;2.33;2.33;;;;;30.18;48.98;101750.38;6136977;23;46178;-95
2022/07/11 20:04:24;;;;;;;;;0.33;0.00;;;;;30.14;49.01;101754.06;6140440;23;44956;-95
2022/07/11 20:06:50;;;;;;;;;1.00;1.00;;;;;30.07;48.98;101758.75;6164596;23;45360;-94
2022/07/11 20:09:16;;;;;;;;;2.00;0.67;;;;;30.02;49.11;101752.53;6165970;23;45257;-94
